createdAt,value
2024-03-09T00:00:26.474Z,68.48
2024-03-09T00:02:55.889Z,67.84
2024-03-09T00:05:25.556Z,67.55
2024-03-09T00:07:56.176Z,68.49
2024-03-09T00:10:25.593Z,67.97
2024-03-09T00:12:54.202Z,68.04
2024-03-09T00:15:24.719Z,68.05
2024-03-09T00:17:53.256Z,69.23
2024-03-09T00:20:28.003Z,68.88
2024-03-09T00:22:56.840Z,69.25
2024-03-09T00:25:24.443Z,69.08
2024-03-09T00:27:53.598Z,68.92
2024-03-09T00:30:21.257Z,69.00
2024-03-09T00:32:52.998Z,68.80
2024-03-09T00:35:21.758Z,69.37
2024-03-09T00:37:49.826Z,69.67
2024-03-09T00:40:18.643Z,69.75
2024-03-09T00:42:48.929Z,69.46
2024-03-09T00:45:17.655Z,69.06
2024-03-09T00:47:48.422Z,70.06
2024-03-09T00:50:19.569Z,70.17
2024-03-09T00:52:49.772Z,70.27
2024-03-09T00:55:16.980Z,70.59
2024-03-09T00:57:52.289Z,70.48
2024-03-09T01:00:20.549Z,69.89
2024-03-09T01:02:50.608Z,70.57
2024-03-09T01:05:24.432Z,70.10
2024-03-09T01:07:52.780Z,69.80
2024-03-09T01:10:20.133Z,69.61
2024-03-09T01:12:49.278Z,69.71
2024-03-09T01:15:16.687Z,70.71
2024-03-09T01:17:43.743Z,71.65
2024-03-09T01:20:11.494Z,72.82
2024-03-09T01:22:39.433Z,71.40
2024-03-09T01:25:07.765Z,70.61
2024-03-09T01:27:35.051Z,70.54
2024-03-09T01:30:02.676Z,69.82
2024-03-09T01:32:30.254Z,71.11
2024-03-09T01:35:00.138Z,70.89
2024-03-09T01:37:27.055Z,71.03
2024-03-09T01:39:54.097Z,70.68
2024-03-09T01:42:22.819Z,70.43
2024-03-09T01:44:51.758Z,70.51
2024-03-09T01:47:24.924Z,70.60
2024-03-09T01:49:53.752Z,71.58
2024-03-09T01:52:23.589Z,71.01
2024-03-09T01:54:55.168Z,70.74
2024-03-09T01:57:22.550Z,70.68
2024-03-09T01:59:56.056Z,70.29
2024-03-09T02:02:26.374Z,70.06
2024-03-09T02:04:53.920Z,71.85
2024-03-09T02:07:21.047Z,71.85
2024-03-09T02:09:49.963Z,70.83
2024-03-09T02:12:21.293Z,70.51
2024-03-09T02:14:49.653Z,70.89
2024-03-09T02:17:17.275Z,71.72
2024-03-09T02:19:44.423Z,72.62
2024-03-09T02:22:14.453Z,71.41
2024-03-09T02:24:43.025Z,71.47
2024-03-09T02:27:11.215Z,72.70
2024-03-09T02:29:39.362Z,74.32
2024-03-09T02:32:08.440Z,74.02
2024-03-09T02:34:35.939Z,72.63
2024-03-09T02:37:04.616Z,72.00
2024-03-09T02:39:32.584Z,71.93
2024-03-09T02:42:00.297Z,72.04
2024-03-09T02:44:30.531Z,70.96
2024-03-09T02:46:57.997Z,71.51
2024-03-09T02:49:27.992Z,71.09
2024-03-09T02:51:55.417Z,70.17
2024-03-09T02:54:24.443Z,69.16
2024-03-09T02:56:51.477Z,69.39
2024-03-09T02:59:18.501Z,70.25
2024-03-09T03:01:48.268Z,71.38
2024-03-09T03:04:16.677Z,71.49
2024-03-09T03:06:45.000Z,70.98
2024-03-09T03:09:13.405Z,70.49
2024-03-09T03:11:43.515Z,70.74
2024-03-09T03:14:11.089Z,70.30
2024-03-09T03:16:38.695Z,70.10
2024-03-09T03:19:07.953Z,69.85
2024-03-09T03:21:36.046Z,69.62
2024-03-09T03:24:04.208Z,69.61
2024-03-09T03:26:34.123Z,69.71
2024-03-09T03:29:03.157Z,69.88
2024-03-09T03:31:30.947Z,69.74
2024-03-09T03:33:58.474Z,70.77
2024-03-09T03:36:26.174Z,70.46
2024-03-09T03:38:53.129Z,69.86
2024-03-09T03:41:23.912Z,69.90
2024-03-09T03:43:51.910Z,69.97
2024-03-09T03:46:19.256Z,69.37
2024-03-09T03:48:47.112Z,70.66
2024-03-09T03:51:16.991Z,70.62
2024-03-09T03:53:45.719Z,71.12
2024-03-09T03:56:13.550Z,71.61
2024-03-09T03:58:45.563Z,71.27
2024-03-09T04:01:12.982Z,70.99
2024-03-09T04:03:39.999Z,71.78
2024-03-09T04:06:08.778Z,72.51
2024-03-09T04:08:36.295Z,72.35
2024-03-09T04:11:07.586Z,71.73
2024-03-09T04:13:34.724Z,71.49
2024-03-09T04:16:05.114Z,71.50
2024-03-09T04:18:33.187Z,71.01
2024-03-09T04:21:03.315Z,70.76
2024-03-09T04:23:30.425Z,70.81
2024-03-09T04:25:57.647Z,70.84
2024-03-09T04:28:29.293Z,70.89
2024-03-09T04:30:59.433Z,72.20
2024-03-09T04:33:27.352Z,72.28
2024-03-09T04:35:54.827Z,72.49
2024-03-09T04:38:22.199Z,73.99
2024-03-09T04:40:52.362Z,74.63
2024-03-09T04:43:19.804Z,74.48
2024-03-09T04:45:47.282Z,74.54
2024-03-09T04:48:15.584Z,75.14
2024-03-09T04:50:48.805Z,75.64
2024-03-09T04:53:18.177Z,79.94
2024-03-09T04:55:50.495Z,84.18
2024-03-09T04:58:19.974Z,86.77
2024-03-09T05:00:47.509Z,89.26
2024-03-09T05:03:15.924Z,91.11
2024-03-09T05:05:44.613Z,88.71
2024-03-09T05:08:12.421Z,86.20
2024-03-09T05:10:39.736Z,83.73
2024-03-09T05:13:10.087Z,81.96
2024-03-09T05:15:38.118Z,81.01
2024-03-09T05:18:11.277Z,85.58
2024-03-09T05:20:38.908Z,93.92
2024-03-09T05:23:13.214Z,99.54
2024-03-09T05:25:43.752Z,100.00
2024-03-09T05:28:16.157Z,99.55
2024-03-09T05:30:44.175Z,96.39
2024-03-09T05:33:12.295Z,95.38
2024-03-09T05:35:40.531Z,99.31
2024-03-09T05:38:09.741Z,100.00
2024-03-09T05:40:37.545Z,100.00
2024-03-09T05:43:13.623Z,100.00
2024-03-09T05:45:42.687Z,100.00
2024-03-09T05:48:10.550Z,100.00
2024-03-09T05:50:39.589Z,100.00
2024-03-09T05:53:07.374Z,100.00
2024-03-09T05:55:34.839Z,100.00
2024-03-09T05:58:01.874Z,98.78
2024-03-09T06:00:31.556Z,95.72
2024-03-09T06:03:04.024Z,91.63
2024-03-09T06:05:32.511Z,92.16
2024-03-09T06:08:00.791Z,89.26
2024-03-09T06:10:30.284Z,91.24
2024-03-09T06:12:57.323Z,89.16
2024-03-09T06:15:25.463Z,88.97
2024-03-09T06:17:55.536Z,86.23
2024-03-09T06:20:23.127Z,83.93
2024-03-09T06:22:50.258Z,80.77
2024-03-09T06:25:25.959Z,77.74
2024-03-09T06:27:54.605Z,79.03
2024-03-09T06:30:30.478Z,78.77
2024-03-09T06:33:00.341Z,78.96
2024-03-09T06:35:27.953Z,73.44
2024-03-09T06:38:06.927Z,76.27
2024-03-09T06:40:37.919Z,73.68
2024-03-09T06:43:12.987Z,71.44
2024-03-09T06:45:42.802Z,66.21
2024-03-09T06:48:10.102Z,69.32
2024-03-09T06:50:38.673Z,68.98
2024-03-09T06:53:06.302Z,67.95
2024-03-09T06:55:33.671Z,62.96
2024-03-09T06:58:05.423Z,63.36
2024-03-09T07:00:36.606Z,62.32
2024-03-09T07:03:06.650Z,62.01
2024-03-09T07:05:38.720Z,59.93
2024-03-09T07:08:08.388Z,60.08
2024-03-09T07:10:37.512Z,59.18
2024-03-09T07:13:06.421Z,58.24
2024-03-09T07:15:34.155Z,57.94
2024-03-09T07:18:02.019Z,54.49
2024-03-09T07:20:30.315Z,51.43
2024-03-09T07:22:58.109Z,52.82
2024-03-09T07:25:28.769Z,53.86
2024-03-09T07:27:59.106Z,52.36
2024-03-09T07:30:27.194Z,46.39
2024-03-09T07:32:58.023Z,50.77
2024-03-09T07:35:29.912Z,51.38
2024-03-09T07:38:00.479Z,51.39
2024-03-09T07:40:38.129Z,51.37
2024-03-09T07:43:07.138Z,50.86
2024-03-09T07:45:35.118Z,50.07
2024-03-09T07:48:04.285Z,49.49
2024-03-09T07:50:34.018Z,47.76
2024-03-09T07:53:02.065Z,47.46
2024-03-09T07:55:30.329Z,48.49
2024-03-09T07:58:09.737Z,47.44
2024-03-09T08:00:46.054Z,43.69
2024-03-09T08:03:14.573Z,42.40
2024-03-09T08:05:42.887Z,43.88
2024-03-09T08:08:11.630Z,44.76
2024-03-09T08:10:49.074Z,42.86
2024-03-09T08:13:18.648Z,44.96
2024-03-09T08:15:47.117Z,44.85
2024-03-09T08:18:14.310Z,44.77
2024-03-09T08:20:42.856Z,44.69
2024-03-09T08:23:10.190Z,44.59
2024-03-09T08:25:37.844Z,44.18
2024-03-09T08:28:05.539Z,43.90
2024-03-09T08:30:32.875Z,43.91
2024-03-09T08:33:00.562Z,43.47
2024-03-09T08:35:29.735Z,43.18
2024-03-09T08:37:58.021Z,42.17
2024-03-09T08:40:27.467Z,42.37
2024-03-09T08:42:56.389Z,41.78
2024-03-09T08:45:25.490Z,41.76
2024-03-09T08:47:53.800Z,41.48
2024-03-09T08:50:28.908Z,36.92
2024-03-09T08:52:57.331Z,39.56
2024-03-09T08:55:25.083Z,39.82
2024-03-09T08:57:52.750Z,39.96
2024-03-09T09:00:26.859Z,39.42
2024-03-09T09:02:58.537Z,39.04
2024-03-09T09:05:28.872Z,39.34
2024-03-09T09:07:57.502Z,38.32
2024-03-09T09:10:27.010Z,37.64
2024-03-09T09:12:55.989Z,33.82
2024-03-09T09:15:26.103Z,37.57
2024-03-09T09:17:53.504Z,37.45
2024-03-09T09:20:21.267Z,34.96
2024-03-09T09:22:49.866Z,33.29
2024-03-09T09:25:18.593Z,36.21
2024-03-09T09:27:45.785Z,35.50
2024-03-09T09:30:13.804Z,31.12
2024-03-09T09:32:44.930Z,32.24
2024-03-09T09:35:13.899Z,35.66
2024-03-09T09:37:41.191Z,30.29
2024-03-09T09:40:09.225Z,31.17
2024-03-09T09:42:36.837Z,31.18
2024-03-09T09:45:05.078Z,31.37
2024-03-09T09:47:33.881Z,32.43
2024-03-09T09:50:02.507Z,34.37
2024-03-09T09:52:32.035Z,31.19
2024-03-09T09:55:03.716Z,33.91
2024-03-09T09:57:32.701Z,30.38
2024-03-09T10:00:00.226Z,33.65
2024-03-09T10:02:27.610Z,30.89
2024-03-09T10:04:55.198Z,32.36
2024-03-09T10:07:23.090Z,30.31
2024-03-09T10:09:50.750Z,31.60
2024-03-09T10:12:22.964Z,30.01
2024-03-09T10:14:50.830Z,30.87
2024-03-09T10:17:21.931Z,30.72
2024-03-09T10:19:54.227Z,30.67
2024-03-09T10:22:22.404Z,30.16
2024-03-09T10:24:57.746Z,30.19
2024-03-09T10:27:29.014Z,31.27
2024-03-09T10:30:12.128Z,29.42
2024-03-09T10:32:42.641Z,30.19
2024-03-09T10:35:13.779Z,30.45
2024-03-09T10:37:42.638Z,29.93
2024-03-09T10:40:15.207Z,30.45
2024-03-09T10:42:50.830Z,29.88
2024-03-09T10:45:22.462Z,30.73
2024-03-09T10:47:56.205Z,29.34
2024-03-09T10:50:45.340Z,31.27
2024-03-09T10:53:39.905Z,29.58
2024-03-09T10:56:16.734Z,28.18
2024-03-09T10:58:45.344Z,28.34
2024-03-09T11:01:13.029Z,29.10
2024-03-09T11:03:41.033Z,29.40
2024-03-09T11:06:12.629Z,27.54
2024-03-09T11:08:41.286Z,28.15
2024-03-09T11:11:08.366Z,28.87
2024-03-09T11:13:35.872Z,28.57
2024-03-09T11:16:04.701Z,27.75
2024-03-09T11:18:33.992Z,25.09
2024-03-09T11:21:01.957Z,25.68
2024-03-09T11:23:36.657Z,24.96
2024-03-09T11:26:05.170Z,25.82
2024-03-09T11:28:44.523Z,26.23
2024-03-09T11:31:18.480Z,25.53
2024-03-09T11:33:50.929Z,26.79
2024-03-09T11:36:54.203Z,25.33
2024-03-09T11:39:34.303Z,26.96
2024-03-09T11:42:03.977Z,28.05
2024-03-09T11:44:35.437Z,28.33
2024-03-09T11:47:05.032Z,28.12
2024-03-09T11:49:34.863Z,28.21
2024-03-09T11:52:11.636Z,28.16
2024-03-09T11:54:39.524Z,28.43
2024-03-09T11:57:09.122Z,28.50
2024-03-09T11:59:36.536Z,28.37
2024-03-09T12:02:08.409Z,27.71
2024-03-09T12:04:36.119Z,25.83
2024-03-09T12:07:07.699Z,27.12
2024-03-09T12:09:36.148Z,26.55
2024-03-09T12:12:14.199Z,24.98
2024-03-09T12:14:44.535Z,25.02
2024-03-09T12:17:13.707Z,26.06
2024-03-09T12:19:43.498Z,25.74
2024-03-09T12:22:11.699Z,25.89
2024-03-09T12:24:38.862Z,26.01
2024-03-09T12:27:06.734Z,26.51
2024-03-09T12:29:36.454Z,25.99
2024-03-09T12:32:06.157Z,26.21
2024-03-09T12:34:33.970Z,26.09
2024-03-09T12:37:01.329Z,26.60
2024-03-09T12:39:30.585Z,27.57
2024-03-09T12:42:04.047Z,27.65
2024-03-09T12:44:41.970Z,26.70
2024-03-09T12:47:16.597Z,26.54
2024-03-09T12:49:45.402Z,25.57
2024-03-09T12:52:12.891Z,24.91
2024-03-09T12:54:47.403Z,25.46
2024-03-09T12:57:24.975Z,25.60
2024-03-09T12:59:52.055Z,26.19
2024-03-09T13:02:18.961Z,26.59
2024-03-09T13:04:47.494Z,26.73
2024-03-09T13:07:16.154Z,27.23
2024-03-09T13:09:43.378Z,27.27
2024-03-09T13:12:10.641Z,27.54
2024-03-09T13:14:38.746Z,28.37
2024-03-09T13:17:07.333Z,28.74
2024-03-09T13:19:35.449Z,28.58
2024-03-09T13:22:04.201Z,29.10
2024-03-09T13:24:32.159Z,29.25
2024-03-09T13:26:59.104Z,29.59
2024-03-09T13:29:30.701Z,31.40
2024-03-09T13:31:59.771Z,32.46
2024-03-09T13:34:31.695Z,33.03
2024-03-09T13:36:59.556Z,32.49
2024-03-09T13:39:29.465Z,32.58
2024-03-09T13:41:58.249Z,32.32
2024-03-09T13:44:26.041Z,32.75
2024-03-09T13:46:53.866Z,33.04
2024-03-09T13:49:21.392Z,33.66
2024-03-09T13:51:48.536Z,33.63
2024-03-09T13:54:19.205Z,34.19
2024-03-09T13:56:47.461Z,34.34
2024-03-09T13:59:15.574Z,34.76
2024-03-09T14:01:45.497Z,34.58
2024-03-09T14:04:13.968Z,34.85
2024-03-09T14:06:57.380Z,34.38
2024-03-09T14:09:33.729Z,34.55
2024-03-09T14:12:01.307Z,35.39
2024-03-09T14:14:29.413Z,35.26
2024-03-09T14:16:57.344Z,35.11
2024-03-09T14:19:24.754Z,35.27
2024-03-09T14:21:53.110Z,35.26
2024-03-09T14:24:21.150Z,35.18
2024-03-09T14:26:48.447Z,35.35
2024-03-09T14:29:18.269Z,35.77
2024-03-09T14:31:47.944Z,35.97
2024-03-09T14:34:15.757Z,35.96
2024-03-09T14:36:43.041Z,36.12
2024-03-09T14:39:18.485Z,35.88
2024-03-09T14:41:45.896Z,36.60
2024-03-09T14:44:14.196Z,37.83
2024-03-09T14:46:42.248Z,38.61
2024-03-09T14:49:10.790Z,38.02
2024-03-09T14:51:38.473Z,37.96
2024-03-09T14:54:05.698Z,38.77
2024-03-09T14:56:32.774Z,38.07
2024-03-09T14:59:06.290Z,38.20
2024-03-09T15:01:33.485Z,38.97
2024-03-09T15:04:00.394Z,38.52
2024-03-09T15:06:27.468Z,38.43
2024-03-09T15:08:59.129Z,38.70
2024-03-09T15:11:26.528Z,39.02
2024-03-09T15:13:58.166Z,39.14
2024-03-09T15:16:28.553Z,38.74
2024-03-09T15:18:56.565Z,39.11
2024-03-09T15:21:28.806Z,39.51
2024-03-09T15:23:56.951Z,39.44
2024-03-09T15:26:28.479Z,39.90
2024-03-09T15:28:57.946Z,40.27
2024-03-09T15:31:25.483Z,40.60
2024-03-09T15:33:56.624Z,40.73
2024-03-09T15:36:25.532Z,40.59
2024-03-09T15:38:53.203Z,41.01
2024-03-09T15:41:20.891Z,41.44
2024-03-09T15:43:50.125Z,41.86
2024-03-09T15:46:19.744Z,43.72
2024-03-09T15:48:48.630Z,47.07
2024-03-09T15:51:19.922Z,45.64
2024-03-09T15:53:47.793Z,46.24
2024-03-09T15:56:21.659Z,44.77
2024-03-09T15:58:55.317Z,44.12
2024-03-09T16:01:23.783Z,44.81
2024-03-09T16:03:51.486Z,44.84
2024-03-09T16:06:19.207Z,45.00
2024-03-09T16:08:46.347Z,45.63
2024-03-09T16:11:13.914Z,45.53
2024-03-09T16:13:42.216Z,46.37
2024-03-09T16:16:09.797Z,46.08
2024-03-09T16:18:37.354Z,47.39
2024-03-09T16:21:08.665Z,46.85
2024-03-09T16:23:45.251Z,47.32
2024-03-09T16:26:13.005Z,48.67
2024-03-09T16:28:40.193Z,47.93
2024-03-09T16:31:12.620Z,48.49
2024-03-09T16:33:39.927Z,50.04
2024-03-09T16:36:07.178Z,49.65
2024-03-09T16:38:34.299Z,49.41
2024-03-09T16:41:02.994Z,50.19
2024-03-09T16:43:34.853Z,50.98
2024-03-09T16:46:08.944Z,54.48
2024-03-09T16:48:37.030Z,52.15
2024-03-09T16:51:08.286Z,51.45
2024-03-09T16:53:38.497Z,51.27
2024-03-09T16:56:06.591Z,51.62
2024-03-09T16:58:33.995Z,52.83
2024-03-09T17:01:06.078Z,51.92
2024-03-09T17:03:33.780Z,52.14
2024-03-09T17:06:01.073Z,52.65
2024-03-09T17:08:28.218Z,54.02
2024-03-09T17:10:55.995Z,53.67
2024-03-09T17:13:23.829Z,53.95
2024-03-09T17:15:51.234Z,54.02
2024-03-09T17:18:18.409Z,54.00
2024-03-09T17:20:46.765Z,53.55
2024-03-09T17:23:13.830Z,54.39
2024-03-09T17:25:42.422Z,54.44
2024-03-09T17:28:09.441Z,54.47
2024-03-09T17:30:38.486Z,54.09
2024-03-09T17:33:08.728Z,54.76
2024-03-09T17:35:36.409Z,54.47
2024-03-09T17:38:04.231Z,54.22
2024-03-09T17:40:32.533Z,54.64
2024-03-09T17:43:00.099Z,55.46
2024-03-09T17:45:27.725Z,55.85
2024-03-09T17:47:55.346Z,57.29
2024-03-09T17:50:28.370Z,56.35
2024-03-09T17:52:56.774Z,58.03
2024-03-09T17:55:24.171Z,58.35
2024-03-09T17:58:09.220Z,57.47
2024-03-09T18:00:38.338Z,56.55
2024-03-09T18:03:06.331Z,56.83
2024-03-09T18:05:38.912Z,56.95
2024-03-09T18:08:11.220Z,55.87
2024-03-09T18:10:43.908Z,57.07
2024-03-09T18:13:14.243Z,56.90
2024-03-09T18:15:45.318Z,57.30
2024-03-09T18:18:13.551Z,58.05
2024-03-09T18:20:43.467Z,58.85
2024-03-09T18:23:11.834Z,59.36
2024-03-09T18:25:39.545Z,57.85
2024-03-09T18:28:09.795Z,57.95
2024-03-09T18:30:37.587Z,59.08
2024-03-09T18:33:10.334Z,59.03
2024-03-09T18:35:39.110Z,59.64
2024-03-09T18:38:07.562Z,60.68
2024-03-09T18:40:34.850Z,60.42
2024-03-09T18:43:03.718Z,60.44
2024-03-09T18:45:34.437Z,63.82
2024-03-09T18:48:02.512Z,61.95
2024-03-09T18:50:29.701Z,59.84
2024-03-09T18:53:03.010Z,59.52
2024-03-09T18:55:31.593Z,59.54
2024-03-09T18:58:00.970Z,59.17
2024-03-09T19:00:32.320Z,59.30
2024-03-09T19:03:01.822Z,59.70
2024-03-09T19:05:29.595Z,61.07
2024-03-09T19:08:00.876Z,60.39
2024-03-09T19:10:29.082Z,61.30
2024-03-09T19:12:56.350Z,60.37
2024-03-09T19:15:26.823Z,60.20
2024-03-09T19:17:55.366Z,60.52
2024-03-09T19:20:29.247Z,59.65
2024-03-09T19:22:56.857Z,59.90
2024-03-09T19:25:24.303Z,60.24
2024-03-09T19:27:53.283Z,60.30
2024-03-09T19:30:22.703Z,61.96
2024-03-09T19:32:51.671Z,60.62
2024-03-09T19:35:23.346Z,60.41
2024-03-09T19:37:51.172Z,61.23
2024-03-09T19:40:21.629Z,61.79
2024-03-09T19:42:50.041Z,62.62
2024-03-09T19:45:20.280Z,61.73
2024-03-09T19:47:50.374Z,62.28
2024-03-09T19:50:18.231Z,61.84
2024-03-09T19:52:48.568Z,61.76
2024-03-09T19:55:16.982Z,62.09
2024-03-09T19:57:48.516Z,61.54
2024-03-09T20:00:29.577Z,62.26
2024-03-09T20:02:58.212Z,62.09
2024-03-09T20:05:34.491Z,62.00
2024-03-09T20:08:02.666Z,62.73
2024-03-09T20:10:33.996Z,62.47
2024-03-09T20:13:01.389Z,62.52
2024-03-09T20:15:28.918Z,63.04
2024-03-09T20:17:57.052Z,62.14
2024-03-09T20:20:26.184Z,62.35
2024-03-09T20:22:58.832Z,62.60
2024-03-09T20:25:26.220Z,62.47
2024-03-09T20:27:53.462Z,62.53
2024-03-09T20:30:21.456Z,63.19
2024-03-09T20:32:49.673Z,63.38
2024-03-09T20:35:18.714Z,63.62
2024-03-09T20:37:48.191Z,63.97
2024-03-09T20:40:20.015Z,65.40
2024-03-09T20:42:50.655Z,65.70
2024-03-09T20:45:19.686Z,64.44
2024-03-09T20:47:47.485Z,64.55
2024-03-09T20:50:19.752Z,65.64
2024-03-09T20:52:59.018Z,65.32
2024-03-09T20:55:26.535Z,65.22
2024-03-09T20:57:54.886Z,65.13
2024-03-09T21:00:26.865Z,64.55
2024-03-09T21:02:54.538Z,64.82
2024-03-09T21:05:22.775Z,64.18
2024-03-09T21:07:50.344Z,64.72
2024-03-09T21:10:17.267Z,65.22
2024-03-09T21:12:48.078Z,64.78
2024-03-09T21:15:16.614Z,64.12
2024-03-09T21:17:43.604Z,64.21
2024-03-09T21:20:16.012Z,64.45
2024-03-09T21:22:43.286Z,64.35
2024-03-09T21:25:13.681Z,64.38
2024-03-09T21:27:44.104Z,64.76
2024-03-09T21:30:14.077Z,64.59
2024-03-09T21:32:43.360Z,66.15
2024-03-09T21:35:14.146Z,65.23
2024-03-09T21:37:44.966Z,64.65
2024-03-09T21:40:14.271Z,64.63
2024-03-09T21:42:42.586Z,64.80
2024-03-09T21:45:09.917Z,65.21
2024-03-09T21:47:38.247Z,64.70
2024-03-09T21:50:06.289Z,64.77
2024-03-09T21:52:33.681Z,65.19
2024-03-09T21:55:00.590Z,65.92
2024-03-09T21:57:27.453Z,65.96
2024-03-09T21:59:54.970Z,66.50
2024-03-09T22:02:22.307Z,68.39
2024-03-09T22:04:49.550Z,66.80
2024-03-09T22:07:16.613Z,66.64
2024-03-09T22:09:43.591Z,67.95
2024-03-09T22:12:12.256Z,68.35
2024-03-09T22:14:39.949Z,68.74
2024-03-09T22:17:07.417Z,68.62
2024-03-09T22:19:34.548Z,68.46
2024-03-09T22:22:01.329Z,68.62
2024-03-09T22:24:28.405Z,68.29
2024-03-09T22:26:56.541Z,68.79
2024-03-09T22:29:24.638Z,68.61
2024-03-09T22:31:51.773Z,68.46
2024-03-09T22:34:19.273Z,68.03
2024-03-09T22:36:46.159Z,67.36
2024-03-09T22:39:13.314Z,68.18
2024-03-09T22:41:40.317Z,68.68
2024-03-09T22:44:07.690Z,68.52
2024-03-09T22:46:35.833Z,68.16
2024-03-09T22:49:06.131Z,67.82
2024-03-09T22:51:33.808Z,67.64
2024-03-09T22:54:02.238Z,67.94
2024-03-09T22:56:29.208Z,67.42
2024-03-09T22:58:56.397Z,67.30
2024-03-09T23:01:26.565Z,67.17
2024-03-09T23:03:54.394Z,67.63
2024-03-09T23:06:21.712Z,68.27
2024-03-09T23:08:49.430Z,68.11
2024-03-09T23:11:19.362Z,67.98
2024-03-09T23:13:48.090Z,68.01
2024-03-09T23:16:15.717Z,68.20
2024-03-09T23:18:43.553Z,68.13
2024-03-09T23:21:11.098Z,68.83
2024-03-09T23:23:38.273Z,68.68
2024-03-09T23:26:05.501Z,68.66
2024-03-09T23:28:32.592Z,68.93
2024-03-09T23:31:02.193Z,68.95
2024-03-09T23:33:29.142Z,69.85
2024-03-09T23:35:56.028Z,69.55
2024-03-09T23:38:23.905Z,70.01
2024-03-09T23:40:51.118Z,69.42
2024-03-09T23:43:19.672Z,70.42
2024-03-09T23:45:47.177Z,70.24
2024-03-09T23:48:17.250Z,70.00
2024-03-09T23:50:44.240Z,70.09
2024-03-09T23:53:13.147Z,70.15
2024-03-09T23:55:41.694Z,70.71
2024-03-09T23:58:08.932Z,71.89
